Time;durP1;ratioP1;P1;durP2;ratioP2;P2;SDS_P1;SDS_P2;PMS_P1;PMS_P2;Temp;Humidity;BMP_temperature;BMP_pressure;BME280_temperature;BME280_humidity;BME280_pressure;Samples;Min_cycle;Max_cycle;Signal;HPM_P1;HPM_P2
2022/02/25 00:01:57;;;;;;;3.72;3.42;;;;;;;;;;5037998;28;20418;-59
2022/02/25 00:04:23;;;;;;;3.10;2.80;;;;;;;;;;5038754;28;20053;-57
2022/02/25 00:06:48;;;;;;;6.18;3.78;;;;;;;;;;5039142;28;20037;-58
2022/02/25 00:09:14;;;;;;;3.50;3.20;;;;;;;;;;5037656;28;20435;-58
2022/02/25 00:11:39;;;;;;;4.00;3.67;;;;;;;;;;5037805;28;20106;-59
2022/02/25 00:14:04;;;;;;;3.67;3.38;;;;;;;;;;5037354;28;20033;-59
2022/02/25 00:16:30;;;;;;;3.60;3.30;;;;;;;;;;5037139;28;20124;-59
2022/02/25 00:18:55;;;;;;;3.83;3.42;;;;;;;;;;5035215;28;20414;-58
2022/02/25 00:21:20;;;;;;;3.17;2.88;;;;;;;;;;5039712;28;20044;-58
2022/02/25 00:23:46;;;;;;;4.35;3.95;;;;;;;;;;5040079;28;20033;-58
2022/02/25 00:26:11;;;;;;;3.42;3.13;;;;;;;;;;5038790;28;20417;-58
2022/02/25 00:28:36;;;;;;;3.45;3.15;;;;;;;;;;5038339;28;20025;-58
2022/02/25 00:31:02;;;;;;;3.75;3.45;;;;;;;;;;5038790;28;20463;-57
2022/02/25 00:33:27;;;;;;;3.63;3.33;;;;;;;;;;5039823;28;20608;-58
2022/02/25 00:35:53;;;;;;;3.40;3.10;;;;;;;;;;5036519;28;20082;-58
2022/02/25 00:38:19;;;;;;;4.18;3.78;;;;;;;;;;5037487;28;20076;-58
2022/02/25 00:40:45;;;;;;;3.42;3.13;;;;;;;;;;5037527;28;20044;-57
2022/02/25 00:43:10;;;;;;;3.60;3.30;;;;;;;;;;5037077;28;20037;-57
2022/02/25 00:45:35;;;;;;;3.72;3.42;;;;;;;;;;5035973;28;20060;-58
2022/02/25 00:48:01;;;;;;;3.35;3.05;;;;;;;;;;5035736;28;20032;-57
2022/02/25 00:50:27;;;;;;;3.35;3.05;;;;;;;;;;5037518;28;20152;-58
2022/02/25 00:52:53;;;;;;;3.50;3.20;;;;;;;;;;5037168;28;20348;-58
2022/02/25 00:55:19;;;;;;;3.50;3.20;;;;;;;;;;5036741;28;20043;-59
2022/02/25 00:57:45;;;;;;;4.47;4.07;;;;;;;;;;5036594;28;20402;-58
2022/02/25 01:00:13;;;;;;;3.58;3.28;;;;;;;;;;5036848;28;20041;-57
2022/02/25 01:02:38;;;;;;;3.70;3.40;;;;;;;;;;5036156;28;20116;-58
2022/02/25 01:05:04;;;;;;;7.15;4.25;;;;;;;;;;5036066;28;20166;-58
2022/02/25 01:07:29;;;;;;;4.47;3.53;;;;;;;;;;5036026;28;20033;-58
2022/02/25 01:09:55;;;;;;;4.13;3.38;;;;;;;;;;5038941;28;20108;-59
2022/02/25 01:12:20;;;;;;;3.60;3.30;;;;;;;;;;5038724;28;20194;-58
2022/02/25 01:14:45;;;;;;;3.55;3.25;;;;;;;;;;5035417;28;20051;-58
2022/02/25 01:17:11;;;;;;;4.05;3.65;;;;;;;;;;5033434;28;20037;-59
2022/02/25 01:19:36;;;;;;;3.55;3.25;;;;;;;;;;5038273;28;20033;-58
2022/02/25 01:22:02;;;;;;;3.60;3.30;;;;;;;;;;5038594;28;20021;-58
2022/02/25 01:24:27;;;;;;;3.72;3.42;;;;;;;;;;5035549;28;20060;-58
2022/02/25 01:26:52;;;;;;;4.60;4.20;;;;;;;;;;5034632;28;20028;-57
2022/02/25 01:29:18;;;;;;;4.15;3.75;;;;;;;;;;5036091;28;20037;-57
2022/02/25 01:31:45;;;;;;;3.78;3.47;;;;;;;;;;5038455;28;20374;-58
2022/02/25 01:34:11;;;;;;;3.70;3.40;;;;;;;;;;5035852;28;20508;-58
2022/02/25 01:36:36;;;;;;;3.92;3.33;;;;;;;;;;5036310;28;20045;-58
2022/02/25 01:39:02;;;;;;;5.65;3.75;;;;;;;;;;5035817;28;20481;-57
2022/02/25 01:41:30;;;;;;;4.00;3.65;;;;;;;;;;5038870;28;20512;-57
2022/02/25 01:44:22;;;;;;;3.50;3.20;;;;;;;;;;5034680;28;20037;-58
2022/02/25 01:46:55;;;;;;;4.25;3.85;;;;;;;;;;5040053;28;20029;-57
2022/02/25 01:49:21;;;;;;;3.88;3.58;;;;;;;;;;5034736;28;20043;-57
2022/02/25 01:51:48;;;;;;;3.65;3.35;;;;;;;;;;5035825;28;20660;-57
2022/02/25 01:54:14;;;;;;;3.75;3.45;;;;;;;;;;5033586;28;20029;-58
2022/02/25 01:56:42;;;;;;;3.85;3.55;;;;;;;;;;5036888;28;20116;-57
2022/02/25 01:59:08;;;;;;;3.58;3.28;;;;;;;;;;5036260;28;20064;-56
2022/02/25 02:01:34;;;;;;;3.63;3.33;;;;;;;;;;5032052;28;20036;-56
2022/02/25 02:04:00;;;;;;;3.88;3.58;;;;;;;;;;5036759;28;20454;-56
2022/02/25 02:06:26;;;;;;;3.65;3.35;;;;;;;;;;5034166;28;20081;-55
2022/02/25 02:08:52;;;;;;;3.58;3.28;;;;;;;;;;5034015;28;20017;-56
2022/02/25 02:11:31;;;;;;;6.53;3.53;;;;;;;;;;5040299;28;20045;-56
2022/02/25 02:13:59;;;;;;;3.78;3.47;;;;;;;;;;5035446;28;20044;-56
2022/02/25 02:16:25;;;;;;;4.70;4.20;;;;;;;;;;5034696;28;20123;-56
2022/02/25 02:18:50;;;;;;;3.60;3.30;;;;;;;;;;5032245;28;20421;-55
2022/02/25 02:21:16;;;;;;;3.70;3.40;;;;;;;;;;5035270;28;20045;-56
2022/02/25 02:23:41;;;;;;;3.50;3.20;;;;;;;;;;5035505;28;20037;-57
2022/02/25 02:26:07;;;;;;;4.22;3.83;;;;;;;;;;5035938;28;20076;-55
2022/02/25 02:28:32;;;;;;;4.15;3.75;;;;;;;;;;5030944;28;20044;-56
2022/02/25 02:30:57;;;;;;;3.70;3.40;;;;;;;;;;5034511;28;20029;-56
2022/02/25 02:33:23;;;;;;;3.83;3.50;;;;;;;;;;5029463;28;20040;-56
2022/02/25 02:35:49;;;;;;;3.65;3.35;;;;;;;;;;5037206;28;20550;-57
2022/02/25 02:38:15;;;;;;;3.85;3.55;;;;;;;;;;5033359;28;20043;-57
2022/02/25 02:40:41;;;;;;;3.67;3.38;;;;;;;;;;5035652;28;20029;-59
2022/02/25 02:43:10;;;;;;;3.60;3.30;;;;;;;;;;5037651;28;20067;-59
2022/02/25 02:45:36;;;;;;;3.50;3.20;;;;;;;;;;5035473;28;20120;-59
2022/02/25 02:48:02;;;;;;;4.43;4.03;;;;;;;;;;5037218;28;20029;-59
2022/02/25 02:50:27;;;;;;;3.40;3.10;;;;;;;;;;5033636;28;20091;-59
2022/02/25 02:52:52;;;;;;;3.53;3.22;;;;;;;;;;5029984;28;20047;-59
2022/02/25 02:55:17;;;;;;;3.28;2.90;;;;;;;;;;5034399;28;20064;-59
2022/02/25 02:57:43;;;;;;;3.72;3.42;;;;;;;;;;5030296;28;20036;-59
2022/02/25 03:00:10;;;;;;;3.33;3.03;;;;;;;;;;5032657;28;20050;-59
2022/02/25 03:02:36;;;;;;;3.92;3.63;;;;;;;;;;5031754;28;20063;-59
2022/02/25 03:05:02;;;;;;;4.28;3.45;;;;;;;;;;5033296;28;20060;-59
2022/02/25 03:07:27;;;;;;;3.55;3.25;;;;;;;;;;5032054;28;20071;-59
2022/02/25 03:09:53;;;;;;;3.75;3.45;;;;;;;;;;5033371;28;20045;-59
2022/02/25 03:12:18;;;;;;;3.92;3.45;;;;;;;;;;5031456;28;20112;-59
2022/02/25 03:14:44;;;;;;;3.50;3.20;;;;;;;;;;5035304;28;20044;-59
2022/02/25 03:17:11;;;;;;;3.83;3.53;;;;;;;;;;5035554;28;20041;-58
2022/02/25 03:19:37;;;;;;;3.40;3.10;;;;;;;;;;5034915;28;20041;-59
2022/02/25 03:22:03;;;;;;;4.55;3.65;;;;;;;;;;5034209;28;20079;-59
2022/02/25 03:24:28;;;;;;;3.70;3.40;;;;;;;;;;5034539;28;20072;-58
2022/02/25 03:26:53;;;;;;;3.55;3.25;;;;;;;;;;5035073;28;20065;-58
2022/02/25 03:29:19;;;;;;;3.50;3.20;;;;;;;;;;5033875;28;20037;-58
2022/02/25 03:31:44;;;;;;;3.70;3.40;;;;;;;;;;5032906;28;20112;-57
2022/02/25 03:34:09;;;;;;;3.20;2.90;;;;;;;;;;5036440;28;20029;-58
2022/02/25 03:36:35;;;;;;;4.85;3.40;;;;;;;;;;5034274;28;20466;-57
2022/02/25 03:39:00;;;;;;;3.30;3.00;;;;;;;;;;5034039;28;20550;-58
2022/02/25 03:41:27;;;;;;;3.20;2.90;;;;;;;;;;5033971;28;20368;-60
2022/02/25 03:43:52;;;;;;;3.97;3.15;;;;;;;;;;5031266;28;20057;-59
2022/02/25 03:46:18;;;;;;;3.67;3.38;;;;;;;;;;5037823;28;20059;-57
2022/02/25 03:48:43;;;;;;;3.67;3.38;;;;;;;;;;5036359;28;20033;-59
2022/02/25 03:51:09;;;;;;;3.40;3.10;;;;;;;;;;5033860;28;20614;-59
2022/02/25 03:53:34;;;;;;;3.28;2.97;;;;;;;;;;5035173;28;20482;-59
2022/02/25 03:56:00;;;;;;;3.47;3.17;;;;;;;;;;5032400;28;20029;-59
2022/02/25 03:58:25;;;;;;;4.43;4.03;;;;;;;;;;5031567;28;20052;-60
2022/02/25 04:00:50;;;;;;;3.55;3.25;;;;;;;;;;5033252;28;20458;-60
2022/02/25 04:03:16;;;;;;;3.10;2.80;;;;;;;;;;5033547;28;20034;-60
2022/02/25 04:05:41;;;;;;;3.90;3.50;;;;;;;;;;5037595;28;20458;-60
2022/02/25 04:08:06;;;;;;;3.38;3.08;;;;;;;;;;5035975;28;20029;-59
2022/02/25 04:10:33;;;;;;;3.50;3.20;;;;;;;;;;5037908;28;20420;-59
2022/02/25 04:12:58;;;;;;;3.45;3.15;;;;;;;;;;5038817;28;20025;-60
2022/02/25 04:15:24;;;;;;;3.20;2.90;;;;;;;;;;5037061;28;20364;-59
2022/02/25 04:17:49;;;;;;;4.88;3.22;;;;;;;;;;5035197;28;20779;-59
2022/02/25 04:20:14;;;;;;;3.25;2.95;;;;;;;;;;5037608;28;20029;-59
2022/02/25 04:22:40;;;;;;;3.40;3.10;;;;;;;;;;5039050;28;20352;-59
2022/02/25 04:25:07;;;;;;;5.30;4.25;;;;;;;;;;5037432;28;20084;-59
2022/02/25 04:27:33;;;;;;;3.42;3.13;;;;;;;;;;5037162;28;20056;-59
2022/02/25 04:29:58;;;;;;;3.50;3.20;;;;;;;;;;5039327;28;20367;-59
2022/02/25 04:32:23;;;;;;;3.10;2.80;;;;;;;;;;5038295;28;20067;-59
2022/02/25 04:34:50;;;;;;;10.02;3.22;;;;;;;;;;5041052;28;20142;-59
2022/02/25 04:37:16;;;;;;;3.40;3.10;;;;;;;;;;5036824;28;20040;-59
2022/02/25 04:39:41;;;;;;;3.20;2.90;;;;;;;;;;5035881;28;20037;-60
2022/02/25 04:42:07;;;;;;;3.10;2.80;;;;;;;;;;5036271;28;20167;-60
2022/02/25 04:44:32;;;;;;;3.10;2.80;;;;;;;;;;5038024;28;20110;-60
2022/02/25 04:46:57;;;;;;;4.65;3.80;;;;;;;;;;5038580;28;20504;-60
2022/02/25 04:49:23;;;;;;;3.00;2.70;;;;;;;;;;5038028;28;20033;-59
2022/02/25 04:51:48;;;;;;;3.00;2.70;;;;;;;;;;5034983;28;20482;-59
2022/02/25 04:54:13;;;;;;;3.22;2.92;;;;;;;;;;5035229;28;20402;-59
2022/02/25 04:56:39;;;;;;;2.80;2.50;;;;;;;;;;5033321;28;20482;-59
2022/02/25 04:59:04;;;;;;;3.42;3.13;;;;;;;;;;5033963;28;20447;-59
2022/02/25 05:01:29;;;;;;;5.20;2.90;;;;;;;;;;5041213;28;20044;-59
2022/02/25 05:03:55;;;;;;;3.00;2.70;;;;;;;;;;5038567;28;20037;-58
2022/02/25 05:06:20;;;;;;;3.20;2.80;;;;;;;;;;5034538;28;20041;-58
2022/02/25 05:08:45;;;;;;;6.05;4.28;;;;;;;;;;5036261;28;20041;-58
2022/02/25 05:11:11;;;;;;;3.13;2.83;;;;;;;;;;5036417;28;20029;-58
2022/02/25 05:13:37;;;;;;;3.70;3.17;;;;;;;;;;5036232;28;20132;-58
2022/02/25 05:21:30;;;;;;;3.10;2.80;;;;;;;;;;5033822;28;20033;-58
2022/02/25 05:23:56;;;;;;;3.60;3.30;;;;;;;;;;5038673;28;20041;-58
2022/02/25 05:26:22;;;;;;;3.63;3.33;;;;;;;;;;5037124;28;20038;-58
2022/02/25 05:28:48;;;;;;;3.25;2.95;;;;;;;;;;5038108;28;20036;-59
2022/02/25 05:31:15;;;;;;;5.32;3.42;;;;;;;;;;5035776;28;20033;-58
2022/02/25 05:33:41;;;;;;;3.13;2.83;;;;;;;;;;5036110;28;20479;-59
2022/02/25 05:36:06;;;;;;;3.47;3.17;;;;;;;;;;5033203;28;20060;-59
2022/02/25 05:38:31;;;;;;;3.30;3.00;;;;;;;;;;5034202;28;20033;-59
2022/02/25 05:40:57;;;;;;;3.28;2.97;;;;;;;;;;5039742;28;20515;-58
2022/02/25 05:43:22;;;;;;;3.20;2.90;;;;;;;;;;5038411;28;20048;-58
2022/02/25 05:45:48;;;;;;;3.10;2.80;;;;;;;;;;5036914;28;20040;-59
2022/02/25 05:48:13;;;;;;;3.20;2.90;;;;;;;;;;5036944;28;20435;-59
2022/02/25 05:50:39;;;;;;;3.00;2.70;;;;;;;;;;5035264;28;20096;-59
2022/02/25 05:53:04;;;;;;;3.25;2.92;;;;;;;;;;5032704;28;20464;-59
2022/02/25 05:55:29;;;;;;;3.17;2.88;;;;;;;;;;5038319;28;20049;-59
2022/02/25 05:57:55;;;;;;;3.10;2.80;;;;;;;;;;5039779;28;20091;-58
2022/02/25 06:00:21;;;;;;;3.63;3.20;;;;;;;;;;5033486;28;20041;-58
2022/02/25 06:02:48;;;;;;;3.53;3.22;;;;;;;;;;5039029;28;20043;-58
2022/02/25 06:05:14;;;;;;;3.20;2.90;;;;;;;;;;5036364;28;20162;-59
2022/02/25 06:07:40;;;;;;;3.30;3.00;;;;;;;;;;5036704;28;20033;-58
2022/02/25 06:10:07;;;;;;;3.10;2.80;;;;;;;;;;5039199;28;20030;-58
2022/02/25 06:12:33;;;;;;;3.42;3.13;;;;;;;;;;5032243;28;20026;-57
2022/02/25 06:14:59;;;;;;;3.40;3.10;;;;;;;;;;5035801;28;20040;-58
2022/02/25 06:17:24;;;;;;;3.80;3.50;;;;;;;;;;5036260;28;20029;-58
2022/02/25 06:19:50;;;;;;;3.40;3.10;;;;;;;;;;5018644;28;20116;-58
2022/02/25 06:22:16;;;;;;;3.70;3.40;;;;;;;;;;5034269;28;20124;-59
2022/02/25 06:24:42;;;;;;;3.97;3.10;;;;;;;;;;5033787;28;20135;-59
2022/02/25 06:27:07;;;;;;;3.05;2.75;;;;;;;;;;5033150;28;20543;-58
2022/02/25 06:29:33;;;;;;;3.65;3.35;;;;;;;;;;5033184;28;20040;-58
2022/02/25 06:31:59;;;;;;;3.10;2.80;;;;;;;;;;5032008;28;20136;-58
2022/02/25 06:34:25;;;;;;;3.25;2.95;;;;;;;;;;5034667;28;20572;-59
2022/02/25 06:36:50;;;;;;;6.10;3.38;;;;;;;;;;5034232;28;20091;-58
2022/02/25 06:39:15;;;;;;;3.60;3.30;;;;;;;;;;5038810;28;20037;-58
2022/02/25 06:41:41;;;;;;;3.42;3.13;;;;;;;;;;5032806;28;20410;-58
2022/02/25 06:44:06;;;;;;;3.33;3.03;;;;;;;;;;5029727;28;20113;-58
2022/02/25 06:46:32;;;;;;;4.45;3.67;;;;;;;;;;5033870;28;20537;-59
2022/02/25 06:48:57;;;;;;;3.70;3.20;;;;;;;;;;5038024;28;20104;-59
2022/02/25 06:51:23;;;;;;;14.48;3.22;;;;;;;;;;5035762;28;20039;-58
2022/02/25 06:53:48;;;;;;;2.90;2.60;;;;;;;;;;5032872;28;20044;-58
2022/02/25 06:56:13;;;;;;;3.28;2.97;;;;;;;;;;5038199;28;20898;-58
2022/02/25 06:58:39;;;;;;;5.35;3.80;;;;;;;;;;5033487;28;20437;-58
2022/02/25 07:01:05;;;;;;;3.20;2.90;;;;;;;;;;5033047;28;20041;-58
2022/02/25 07:03:31;;;;;;;4.60;3.30;;;;;;;;;;5032910;28;20433;-58
2022/02/25 07:05:57;;;;;;;3.10;2.80;;;;;;;;;;5035472;28;20033;-58
2022/02/25 07:08:22;;;;;;;3.92;3.53;;;;;;;;;;5033294;28;20052;-58
2022/02/25 07:10:48;;;;;;;5.82;3.42;;;;;;;;;;5029985;28;20034;-59
2022/02/25 07:13:14;;;;;;;2.90;2.60;;;;;;;;;;5034212;28;20044;-59
2022/02/25 07:15:40;;;;;;;4.90;3.38;;;;;;;;;;5037405;28;20033;-60
2022/02/25 07:18:06;;;;;;;4.00;3.47;;;;;;;;;;5035199;28;20478;-59
2022/02/25 07:20:32;;;;;;;3.40;3.10;;;;;;;;;;5033646;28;20045;-59
2022/02/25 07:22:57;;;;;;;4.15;2.92;;;;;;;;;;5031299;28;20768;-59
2022/02/25 07:25:23;;;;;;;3.22;2.92;;;;;;;;;;5030834;28;20044;-59
2022/02/25 07:27:49;;;;;;;3.40;3.10;;;;;;;;;;5032536;28;20117;-59
2022/02/25 07:30:14;;;;;;;3.78;3.42;;;;;;;;;;5033090;28;20038;-59
2022/02/25 07:32:40;;;;;;;3.10;2.80;;;;;;;;;;5030415;28;20087;-59
2022/02/25 07:35:09;;;;;;;3.75;3.45;;;;;;;;;;5030147;28;20124;-59
2022/02/25 07:37:35;;;;;;;3.70;3.40;;;;;;;;;;5030606;28;20055;-59
2022/02/25 07:40:01;;;;;;;3.75;3.45;;;;;;;;;;5042446;28;20057;-59
2022/02/25 07:42:26;;;;;;;18.90;4.00;;;;;;;;;;5039507;28;20116;-59
2022/02/25 07:44:51;;;;;;;4.43;4.03;;;;;;;;;;5041038;28;20128;-59
2022/02/25 07:47:19;;;;;;;3.25;2.95;;;;;;;;;;5040100;28;20028;-59
2022/02/25 07:49:46;;;;;;;4.43;4.03;;;;;;;;;;5039690;28;20038;-59
2022/02/25 07:52:12;;;;;;;4.43;4.03;;;;;;;;;;5037770;28;20041;-59
2022/02/25 07:54:37;;;;;;;4.05;3.75;;;;;;;;;;5039506;28;20124;-59
2022/02/25 07:57:03;;;;;;;3.63;3.33;;;;;;;;;;5035614;28;20125;-59
2022/02/25 07:59:28;;;;;;;4.80;4.38;;;;;;;;;;5037659;28;20048;-59
2022/02/25 08:01:54;;;;;;;5.38;3.80;;;;;;;;;;5037758;28;20025;-59
2022/02/25 08:04:20;;;;;;;3.55;3.25;;;;;;;;;;5035121;28;20045;-59
2022/02/25 08:06:45;;;;;;;4.20;3.85;;;;;;;;;;5038661;28;20112;-59
2022/02/25 08:09:12;;;;;;;5.30;4.75;;;;;;;;;;5039997;28;20118;-59
2022/02/25 08:11:37;;;;;;;4.60;3.92;;;;;;;;;;5037505;28;20172;-59
2022/02/25 08:14:03;;;;;;;4.15;3.75;;;;;;;;;;5037759;28;20481;-59
2022/02/25 08:16:28;;;;;;;3.97;3.60;;;;;;;;;;5036801;28;20037;-59
2022/02/25 08:18:54;;;;;;;3.90;3.50;;;;;;;;;;5039885;28;20075;-59
2022/02/25 08:21:19;;;;;;;7.63;4.50;;;;;;;;;;5037816;28;20113;-59
2022/02/25 08:23:45;;;;;;;5.10;3.47;;;;;;;;;;5038692;28;20079;-59
2022/02/25 08:26:10;;;;;;;3.60;3.30;;;;;;;;;;5030431;28;20044;-59
2022/02/25 08:28:36;;;;;;;4.72;4.32;;;;;;;;;;5029915;28;20045;-59
2022/02/25 08:31:02;;;;;;;5.72;5.22;;;;;;;;;;5032551;28;20071;-59
2022/02/25 08:33:28;;;;;;;5.97;3.90;;;;;;;;;;5026219;28;20037;-60
2022/02/25 08:35:53;;;;;;;4.03;3.72;;;;;;;;;;5026667;28;20068;-60
2022/02/25 08:38:18;;;;;;;4.28;3.88;;;;;;;;;;5027451;28;20037;-60
2022/02/25 08:40:45;;;;;;;4.40;4.00;;;;;;;;;;5026476;28;20040;-60
2022/02/25 08:43:11;;;;;;;5.18;4.78;;;;;;;;;;5027531;28;20477;-60
2022/02/25 08:45:40;;;;;;;4.22;3.92;;;;;;;;;;5027134;28;20033;-59
2022/02/25 08:48:05;;;;;;;4.18;3.70;;;;;;;;;;5028077;28;20038;-59
2022/02/25 08:50:31;;;;;;;3.88;3.55;;;;;;;;;;5021373;28;20102;-59
2022/02/25 08:52:56;;;;;;;3.65;3.22;;;;;;;;;;5027824;28;20362;-59
2022/02/25 08:55:23;;;;;;;3.92;3.63;;;;;;;;;;5017211;28;20037;-59
2022/02/25 08:57:48;;;;;;;5.18;4.70;;;;;;;;;;5029406;28;20051;-59
2022/02/25 09:00:17;;;;;;;3.38;3.08;;;;;;;;;;5029907;28;20536;-60
2022/02/25 09:02:44;;;;;;;8.40;4.28;;;;;;;;;;5030062;28;20076;-60
2022/02/25 09:05:09;;;;;;;4.30;3.58;;;;;;;;;;5030843;28;20539;-59
2022/02/25 09:07:35;;;;;;;3.80;3.50;;;;;;;;;;5034470;28;20080;-59
2022/02/25 09:10:00;;;;;;;3.88;3.58;;;;;;;;;;5036342;28;20546;-59
2022/02/25 09:12:27;;;;;;;6.35;3.80;;;;;;;;;;5037713;28;20622;-60
2022/02/25 09:14:54;;;;;;;7.68;3.25;;;;;;;;;;5037970;28;20038;-59
2022/02/25 09:17:20;;;;;;;6.63;3.65;;;;;;;;;;5033746;28;20041;-59
2022/02/25 09:19:45;;;;;;;3.88;3.58;;;;;;;;;;5037487;28;20029;-58
2022/02/25 09:22:11;;;;;;;3.92;3.50;;;;;;;;;;5037372;28;20448;-59
2022/02/25 09:24:37;;;;;;;4.80;4.10;;;;;;;;;;5038290;28;20561;-59
2022/02/25 09:27:03;;;;;;;3.63;3.33;;;;;;;;;;5037151;28;20067;-59
2022/02/25 09:29:28;;;;;;;4.68;3.58;;;;;;;;;;5037104;28;20041;-59
2022/02/25 09:31:54;;;;;;;6.00;3.70;;;;;;;;;;5036919;28;20101;-60
2022/02/25 09:34:19;;;;;;;4.43;4.03;;;;;;;;;;5038891;28;20598;-59
2022/02/25 09:36:45;;;;;;;4.57;4.18;;;;;;;;;;5036357;28;20041;-59
2022/02/25 09:39:11;;;;;;;3.45;3.15;;;;;;;;;;5035387;28;20095;-60
2022/02/25 09:41:38;;;;;;;4.28;3.55;;;;;;;;;;5036532;28;20370;-59
2022/02/25 09:44:04;;;;;;;4.28;3.88;;;;;;;;;;5037491;28;20417;-55
2022/02/25 09:46:30;;;;;;;5.15;3.35;;;;;;;;;;5033351;28;20037;-60
2022/02/25 09:48:55;;;;;;;4.18;3.22;;;;;;;;;;5036394;28;20576;-59
2022/02/25 09:51:21;;;;;;;3.92;3.53;;;;;;;;;;5032080;28;20033;-61
2022/02/25 09:53:46;;;;;;;4.57;4.18;;;;;;;;;;5035743;28;20029;-61
2022/02/25 09:56:11;;;;;;;3.40;3.10;;;;;;;;;;5035425;28;20033;-61
2022/02/25 09:58:37;;;;;;;3.78;3.47;;;;;;;;;;5037856;28;20112;-61
2022/02/25 10:01:03;;;;;;;3.60;3.30;;;;;;;;;;5033443;28;20052;-61
2022/02/25 10:03:30;;;;;;;3.95;3.65;;;;;;;;;;5030605;28;20114;-61
2022/02/25 10:06:04;;;;;;;3.63;3.33;;;;;;;;;;5027481;28;20033;-61
2022/02/25 10:08:29;;;;;;;3.90;3.50;;;;;;;;;;5022003;28;20026;-61
2022/02/25 10:10:57;;;;;;;4.63;3.88;;;;;;;;;;5031659;28;20044;-62
2022/02/25 10:13:25;;;;;;;3.83;3.53;;;;;;;;;;5027314;28;20049;-61
2022/02/25 10:15:53;;;;;;;3.85;3.50;;;;;;;;;;5027641;28;20909;-61
2022/02/25 10:18:22;;;;;;;7.25;3.75;;;;;;;;;;5031626;28;20044;-61
2022/02/25 10:20:49;;;;;;;3.65;3.15;;;;;;;;;;5031303;28;20041;-62
2022/02/25 10:23:25;;;;;;;2.97;2.67;;;;;;;;;;5024247;28;20069;-60
2022/02/25 10:25:51;;;;;;;6.90;4.05;;;;;;;;;;5026349;28;20091;-64
2022/02/25 10:28:31;;;;;;;6.65;4.13;;;;;;;;;;5025662;28;20488;-58
2022/02/25 10:31:19;;;;;;;3.33;3.03;;;;;;;;;;5026826;28;20033;-58
2022/02/25 10:33:45;;;;;;;4.35;3.95;;;;;;;;;;5026560;28;20041;-58
2022/02/25 10:36:11;;;;;;;5.45;3.70;;;;;;;;;;5026997;28;20049;-59
2022/02/25 10:38:38;;;;;;;5.15;3.35;;;;;;;;;;5028055;28;20042;-62
2022/02/25 10:41:05;;;;;;;3.55;3.25;;;;;;;;;;5023902;28;20045;-62
2022/02/25 10:43:30;;;;;;;4.45;4.05;;;;;;;;;;5027720;28;20469;-62
2022/02/25 10:46:03;;;;;;;5.18;4.68;;;;;;;;;;5029018;28;20108;-60
2022/02/25 10:48:30;;;;;;;4.05;3.67;;;;;;;;;;5028157;28;20045;-61
2022/02/25 10:51:07;;;;;;;4.18;3.78;;;;;;;;;;5027412;28;20036;-62
2022/02/25 10:53:47;;;;;;;17.50;3.88;;;;;;;;;;5029455;28;20344;-62
2022/02/25 10:56:18;;;;;;;4.78;4.28;;;;;;;;;;5026633;28;20037;-60
2022/02/25 10:58:54;;;;;;;4.35;3.25;;;;;;;;;;5023816;28;20036;-61
2022/02/25 11:01:32;;;;;;;4.20;3.58;;;;;;;;;;5026724;28;20048;-62
2022/02/25 11:04:01;;;;;;;5.40;3.70;;;;;;;;;;5026761;28;20051;-62
2022/02/25 11:06:28;;;;;;;3.42;3.13;;;;;;;;;;5022249;28;20064;-60
2022/02/25 11:08:54;;;;;;;4.03;3.63;;;;;;;;;;5021370;28;20033;-61
2022/02/25 11:11:23;;;;;;;8.88;3.40;;;;;;;;;;5019910;28;20040;-60
2022/02/25 11:13:49;;;;;;;8.32;3.95;;;;;;;;;;5022741;28;20041;-63
2022/02/25 11:16:16;;;;;;;3.75;3.45;;;;;;;;;;5027442;28;20103;-60
2022/02/25 11:18:45;;;;;;;3.65;3.35;;;;;;;;;;5027588;28;20156;-61
2022/02/25 11:21:10;;;;;;;3.50;3.20;;;;;;;;;;5024852;28;20041;-62
2022/02/25 11:23:38;;;;;;;16.58;3.92;;;;;;;;;;5025013;28;20043;-62
2022/02/25 11:26:04;;;;;;;3.50;3.20;;;;;;;;;;5024987;28;20107;-61
2022/02/25 11:28:29;;;;;;;3.70;2.97;;;;;;;;;;5022929;28;20025;-61
2022/02/25 11:31:03;;;;;;;4.03;3.60;;;;;;;;;;5024895;28;20652;-61
2022/02/25 11:33:28;;;;;;;3.58;3.28;;;;;;;;;;5025862;28;20037;-61
2022/02/25 11:36:03;;;;;;;3.80;3.42;;;;;;;;;;5026050;28;20110;-61
2022/02/25 11:38:39;;;;;;;5.35;3.53;;;;;;;;;;5026187;28;20099;-61
2022/02/25 11:41:27;;;;;;;3.42;3.13;;;;;;;;;;5025287;28;20068;-60
2022/02/25 11:44:01;;;;;;;4.45;3.67;;;;;;;;;;5027457;28;20180;-61
2022/02/25 11:46:29;;;;;;;3.50;3.20;;;;;;;;;;5018833;28;20033;-61
2022/02/25 11:49:08;;;;;;;3.92;3.58;;;;;;;;;;5026057;28;20037;-61
2022/02/25 11:51:52;;;;;;;3.20;2.90;;;;;;;;;;5024199;28;20642;-59
2022/02/25 11:54:20;;;;;;;3.20;2.90;;;;;;;;;;5026394;28;20041;-60
2022/02/25 11:57:04;;;;;;;3.85;3.47;;;;;;;;;;5024845;28;20083;-61
2022/02/25 11:59:32;;;;;;;3.40;3.10;;;;;;;;;;5023647;28;20045;-62
2022/02/25 12:02:20;;;;;;;3.53;3.22;;;;;;;;;;5025644;28;20128;-62
2022/02/25 12:04:47;;;;;;;10.23;3.70;;;;;;;;;;5022950;28;20120;-60
2022/02/25 12:07:15;;;;;;;4.35;3.95;;;;;;;;;;5023748;28;20037;-61
2022/02/25 12:09:56;;;;;;;4.20;3.83;;;;;;;;;;5020569;28;20103;-62
2022/02/25 12:12:22;;;;;;;4.65;4.20;;;;;;;;;;5018880;28;20511;-62
2022/02/25 12:15:06;;;;;;;3.83;3.50;;;;;;;;;;5018913;28;20041;-62
2022/02/25 12:17:53;;;;;;;4.15;3.75;;;;;;;;;;5020302;28;20047;-61
2022/02/25 12:20:25;;;;;;;3.90;3.60;;;;;;;;;;5022932;28;20598;-61
2022/02/25 12:23:21;;;;;;;3.53;3.22;;;;;;;;;;5026575;28;20098;-62
2022/02/25 12:25:55;;;;;;;4.10;3.72;;;;;;;;;;5019103;28;20092;-61
2022/02/25 12:28:23;;;;;;;3.90;3.50;;;;;;;;;;5022994;28;20551;-62
2022/02/25 12:30:56;;;;;;;3.80;3.50;;;;;;;;;;5023819;28;20052;-61
2022/02/25 12:33:29;;;;;;;3.67;3.38;;;;;;;;;;5028253;28;20073;-62
2022/02/25 12:35:56;;;;;;;7.45;4.40;;;;;;;;;;5028785;28;20059;-61
2022/02/25 12:38:24;;;;;;;3.55;3.10;;;;;;;;;;5028670;28;20128;-63
2022/02/25 12:40:51;;;;;;;3.42;3.13;;;;;;;;;;5028852;28;20060;-62
2022/02/25 12:43:21;;;;;;;3.70;3.40;;;;;;;;;;5029225;28;20033;-60
2022/02/25 12:45:47;;;;;;;6.60;3.90;;;;;;;;;;5028613;28;20032;-60
2022/02/25 12:48:13;;;;;;;4.15;3.40;;;;;;;;;;5028387;28;20472;-60
2022/02/25 12:50:42;;;;;;;3.78;3.42;;;;;;;;;;5027122;28;20029;-61
2022/02/25 12:53:08;;;;;;;7.30;3.70;;;;;;;;;;5026367;28;20076;-61
2022/02/25 12:55:33;;;;;;;4.75;3.22;;;;;;;;;;5026708;28;20133;-61
2022/02/25 12:57:58;;;;;;;5.00;3.85;;;;;;;;;;5024724;28;20083;-62
2022/02/25 13:00:25;;;;;;;3.67;3.38;;;;;;;;;;5027513;28;20037;-62
2022/02/25 13:02:55;;;;;;;4.85;3.60;;;;;;;;;;5026513;28;20037;-61
2022/02/25 13:05:23;;;;;;;6.53;3.77;;;;;;;;;;5024632;28;20335;-62
2022/02/25 13:07:56;;;;;;;4.95;3.92;;;;;;;;;;5025204;28;20038;-62
2022/02/25 13:10:29;;;;;;;3.50;3.20;;;;;;;;;;5026448;28;20119;-62
2022/02/25 13:12:55;;;;;;;3.25;2.95;;;;;;;;;;5025700;28;20042;-63
2022/02/25 13:15:25;;;;;;;4.70;4.20;;;;;;;;;;5027678;28;20036;-63
2022/02/25 13:17:51;;;;;;;3.33;3.03;;;;;;;;;;5028902;28;20040;-63
2022/02/25 13:20:18;;;;;;;3.30;3.00;;;;;;;;;;5026895;28;20033;-62
2022/02/25 13:22:45;;;;;;;6.53;4.30;;;;;;;;;;5020038;28;20041;-62
2022/02/25 13:25:19;;;;;;;3.70;3.40;;;;;;;;;;5025455;28;20049;-61
2022/02/25 13:27:49;;;;;;;5.20;4.70;;;;;;;;;;5029027;28;20084;-61
2022/02/25 13:30:22;;;;;;;3.67;3.38;;;;;;;;;;5027795;28;20030;-63
2022/02/25 13:33:03;;;;;;;3.95;3.55;;;;;;;;;;5029448;28;20033;-63
2022/02/25 13:35:38;;;;;;;11.63;3.80;;;;;;;;;;5027700;28;20120;-62
2022/02/25 13:38:20;;;;;;;4.75;3.92;;;;;;;;;;5033340;28;20080;-62
2022/02/25 13:40:53;;;;;;;4.25;3.50;;;;;;;;;;5032096;28;20130;-61
2022/02/25 13:43:20;;;;;;;4.15;3.75;;;;;;;;;;5032817;28;20032;-59
2022/02/25 13:45:46;;;;;;;3.88;3.58;;;;;;;;;;5035247;28;20056;-61
2022/02/25 13:54:04;;;;;;;10.98;3.97;;;;;;;;;;5034715;28;20037;-62
2022/02/25 13:56:32;;;;;;;3.80;3.50;;;;;;;;;;5027871;28;20037;-62
2022/02/25 13:59:05;;;;;;;3.42;3.13;;;;;;;;;;5029840;28;20033;-62
2022/02/25 14:01:31;;;;;;;4.32;3.92;;;;;;;;;;5029351;28;20033;-60
2022/02/25 14:03:57;;;;;;;4.60;3.80;;;;;;;;;;5030756;28;20079;-62
2022/02/25 14:06:30;;;;;;;3.47;3.17;;;;;;;;;;5029965;28;20060;-62
2022/02/25 14:08:56;;;;;;;14.05;4.22;;;;;;;;;;5030637;28;20063;-62
2022/02/25 14:12:08;;;;;;;3.47;3.17;;;;;;;;;;5032290;28;20029;-62
2022/02/25 14:14:43;;;;;;;3.67;3.38;;;;;;;;;;5025939;28;20048;-62
2022/02/25 14:17:28;;;;;;;3.60;3.30;;;;;;;;;;5013615;28;20040;-62
2022/02/25 14:20:14;;;;;;;4.50;3.58;;;;;;;;;;5027398;28;20033;-61
2022/02/25 14:23:10;;;;;;;3.50;3.20;;;;;;;;;;5031271;28;20044;-62
2022/02/25 14:25:50;;;;;;;3.65;3.35;;;;;;;;;;5017354;28;20073;-62
2022/02/25 14:28:28;;;;;;;4.43;4.03;;;;;;;;;;5026056;28;20694;-62
2022/02/25 14:30:55;;;;;;;4.32;3.92;;;;;;;;;;5028681;28;20071;-62
2022/02/25 14:33:23;;;;;;;4.20;3.75;;;;;;;;;;5030820;28;20028;-61
2022/02/25 14:36:07;;;;;;;3.88;3.58;;;;;;;;;;5035414;28;20037;-60
2022/02/25 14:38:33;;;;;;;5.82;4.47;;;;;;;;;;5034078;28;20029;-60
2022/02/25 14:40:58;;;;;;;3.70;3.40;;;;;;;;;;5035365;28;20041;-60
2022/02/25 14:43:24;;;;;;;3.55;3.25;;;;;;;;;;5032280;28;20363;-60
2022/02/25 14:45:50;;;;;;;3.03;2.72;;;;;;;;;;5033770;28;20053;-60
2022/02/25 14:48:17;;;;;;;3.20;2.90;;;;;;;;;;5036151;28;20107;-60
2022/02/25 14:50:44;;;;;;;3.42;3.13;;;;;;;;;;5034562;28;20034;-60
2022/02/25 14:53:10;;;;;;;3.72;3.42;;;;;;;;;;5034592;28;20033;-60
2022/02/25 14:55:35;;;;;;;7.10;4.03;;;;;;;;;;5020651;28;20045;-60
2022/02/25 14:58:01;;;;;;;3.40;3.10;;;;;;;;;;5034410;28;20524;-60